sensor_id;sensor_type;location;lat;lon;timestamp;P1;durP1;ratioP1;P2;durP2;ratioP2
45043;SDS011;30784;48.490;9.688;2022-08-03T00:02:23;5.80;;;2.20;;
45043;SDS011;30784;48.490;9.688;2022-08-03T00:04:48;6.35;;;2.40;;
45043;SDS011;30784;48.490;9.688;2022-08-03T00:07:14;5.70;;;2.70;;
45043;SDS011;30784;48.490;9.688;2022-08-03T00:09:40;5.40;;;1.90;;
45043;SDS011;30784;48.490;9.688;2022-08-03T00:12:06;4.68;;;1.77;;
45043;SDS011;30784;48.490;9.688;2022-08-03T00:14:32;5.65;;;2.00;;
45043;SDS011;30784;48.490;9.688;2022-08-03T00:16:58;5.57;;;2.33;;
45043;SDS011;30784;48.490;9.688;2022-08-03T00:19:23;6.10;;;3.00;;
45043;SDS011;30784;48.490;9.688;2022-08-03T00:21:49;6.18;;;2.72;;
45043;SDS011;30784;48.490;9.688;2022-08-03T00:24:14;6.68;;;3.25;;
45043;SDS011;30784;48.490;9.688;2022-08-03T00:26:40;9.35;;;4.78;;
45043;SDS011;30784;48.490;9.688;2022-08-03T00:29:06;6.30;;;3.08;;
45043;SDS011;30784;48.490;9.688;2022-08-03T00:31:31;5.32;;;2.20;;
45043;SDS011;30784;48.490;9.688;2022-08-03T00:33:57;4.95;;;2.05;;
45043;SDS011;30784;48.490;9.688;2022-08-03T00:36:23;4.90;;;1.80;;
45043;SDS011;30784;48.490;9.688;2022-08-03T00:38:48;6.20;;;1.80;;
45043;SDS011;30784;48.490;9.688;2022-08-03T00:41:14;4.80;;;1.90;;
45043;SDS011;30784;48.490;9.688;2022-08-03T00:43:39;5.30;;;1.98;;
45043;SDS011;30784;48.490;9.688;2022-08-03T00:46:05;4.30;;;1.58;;
45043;SDS011;30784;48.490;9.688;2022-08-03T00:48:31;4.82;;;1.90;;
45043;SDS011;30784;48.490;9.688;2022-08-03T00:50:56;4.68;;;1.50;;
45043;SDS011;30784;48.490;9.688;2022-08-03T00:53:22;7.50;;;2.55;;
45043;SDS011;30784;48.490;9.688;2022-08-03T00:55:48;5.75;;;2.30;;
45043;SDS011;30784;48.490;9.688;2022-08-03T00:58:14;5.28;;;2.20;;
45043;SDS011;30784;48.490;9.688;2022-08-03T01:00:40;5.45;;;2.20;;
45043;SDS011;30784;48.490;9.688;2022-08-03T01:03:06;6.10;;;2.70;;
45043;SDS011;30784;48.490;9.688;2022-08-03T01:05:36;6.10;;;2.50;;
45043;SDS011;30784;48.490;9.688;2022-08-03T01:08:28;6.80;;;2.80;;
45043;SDS011;30784;48.490;9.688;2022-08-03T01:16:56;7.00;;;2.70;;
45043;SDS011;30784;48.490;9.688;2022-08-03T01:19:34;5.47;;;2.30;;
45043;SDS011;30784;48.490;9.688;2022-08-03T01:25:01;7.05;;;3.00;;
45043;SDS011;30784;48.490;9.688;2022-08-03T01:30:20;5.97;;;2.65;;
45043;SDS011;30784;48.490;9.688;2022-08-03T01:32:59;5.32;;;2.00;;
45043;SDS011;30784;48.490;9.688;2022-08-03T01:38:28;8.02;;;3.97;;
45043;SDS011;30784;48.490;9.688;2022-08-03T01:41:01;6.50;;;2.63;;
45043;SDS011;30784;48.490;9.688;2022-08-03T01:43:29;5.43;;;2.25;;
45043;SDS011;30784;48.490;9.688;2022-08-03T01:45:55;5.18;;;2.10;;
45043;SDS011;30784;48.490;9.688;2022-08-03T01:48:23;4.88;;;1.90;;
45043;SDS011;30784;48.490;9.688;2022-08-03T01:50:50;4.25;;;1.80;;
45043;SDS011;30784;48.490;9.688;2022-08-03T01:53:18;6.28;;;2.20;;
45043;SDS011;30784;48.490;9.688;2022-08-03T01:55:46;4.85;;;1.90;;
45043;SDS011;30784;48.490;9.688;2022-08-03T01:58:16;5.35;;;2.30;;
45043;SDS011;30784;48.490;9.688;2022-08-03T02:00:43;5.95;;;1.90;;
45043;SDS011;30784;48.490;9.688;2022-08-03T02:03:11;5.15;;;2.05;;
45043;SDS011;30784;48.490;9.688;2022-08-03T02:05:39;5.72;;;2.20;;
45043;SDS011;30784;48.490;9.688;2022-08-03T02:08:07;5.03;;;1.90;;
45043;SDS011;30784;48.490;9.688;2022-08-03T02:10:36;5.10;;;1.70;;
45043;SDS011;30784;48.490;9.688;2022-08-03T02:13:05;4.72;;;2.10;;
45043;SDS011;30784;48.490;9.688;2022-08-03T02:15:32;5.03;;;1.90;;
45043;SDS011;30784;48.490;9.688;2022-08-03T02:18:00;6.32;;;2.28;;
45043;SDS011;30784;48.490;9.688;2022-08-03T02:20:28;4.90;;;1.80;;
45043;SDS011;30784;48.490;9.688;2022-08-03T02:22:57;4.55;;;1.70;;
45043;SDS011;30784;48.490;9.688;2022-08-03T02:25:23;4.50;;;1.70;;
45043;SDS011;30784;48.490;9.688;2022-08-03T02:27:50;5.00;;;1.80;;
45043;SDS011;30784;48.490;9.688;2022-08-03T02:30:19;4.63;;;2.00;;
45043;SDS011;30784;48.490;9.688;2022-08-03T02:32:47;5.65;;;2.05;;
45043;SDS011;30784;48.490;9.688;2022-08-03T02:35:18;4.13;;;1.73;;
45043;SDS011;30784;48.490;9.688;2022-08-03T02:37:47;5.95;;;2.45;;
45043;SDS011;30784;48.490;9.688;2022-08-03T02:40:22;12.52;;;6.60;;
45043;SDS011;30784;48.490;9.688;2022-08-03T02:42:50;12.00;;;5.78;;
45043;SDS011;30784;48.490;9.688;2022-08-03T02:45:18;10.68;;;5.00;;
45043;SDS011;30784;48.490;9.688;2022-08-03T02:47:44;7.80;;;3.78;;
45043;SDS011;30784;48.490;9.688;2022-08-03T02:50:13;6.10;;;2.72;;
45043;SDS011;30784;48.490;9.688;2022-08-03T02:52:40;6.75;;;2.50;;
45043;SDS011;30784;48.490;9.688;2022-08-03T02:55:09;6.22;;;2.08;;
45043;SDS011;30784;48.490;9.688;2022-08-03T02:57:35;6.25;;;1.85;;
45043;SDS011;30784;48.490;9.688;2022-08-03T03:00:03;4.35;;;1.63;;
45043;SDS011;30784;48.490;9.688;2022-08-03T03:02:31;4.35;;;1.67;;
45043;SDS011;30784;48.490;9.688;2022-08-03T03:04:57;7.30;;;3.70;;
45043;SDS011;30784;48.490;9.688;2022-08-03T03:07:25;11.55;;;7.05;;
45043;SDS011;30784;48.490;9.688;2022-08-03T03:09:51;7.72;;;4.03;;
45043;SDS011;30784;48.490;9.688;2022-08-03T03:12:17;10.77;;;6.32;;
45043;SDS011;30784;48.490;9.688;2022-08-03T03:14:45;7.60;;;3.72;;
45043;SDS011;30784;48.490;9.688;2022-08-03T03:17:10;6.45;;;3.10;;
45043;SDS011;30784;48.490;9.688;2022-08-03T03:19:38;7.70;;;2.65;;
45043;SDS011;30784;48.490;9.688;2022-08-03T03:22:06;7.07;;;2.10;;
45043;SDS011;30784;48.490;9.688;2022-08-03T03:24:33;6.03;;;2.30;;
45043;SDS011;30784;48.490;9.688;2022-08-03T03:27:00;5.47;;;2.13;;
45043;SDS011;30784;48.490;9.688;2022-08-03T03:29:26;4.70;;;1.80;;
45043;SDS011;30784;48.490;9.688;2022-08-03T03:31:53;4.13;;;1.58;;
45043;SDS011;30784;48.490;9.688;2022-08-03T03:34:19;5.80;;;1.85;;
45043;SDS011;30784;48.490;9.688;2022-08-03T03:36:45;3.25;;;1.30;;
45043;SDS011;30784;48.490;9.688;2022-08-03T03:39:11;3.80;;;1.50;;
45043;SDS011;30784;48.490;9.688;2022-08-03T03:41:38;3.15;;;1.30;;
45043;SDS011;30784;48.490;9.688;2022-08-03T03:44:04;4.40;;;1.42;;
45043;SDS011;30784;48.490;9.688;2022-08-03T03:46:30;3.30;;;1.20;;
45043;SDS011;30784;48.490;9.688;2022-08-03T03:48:55;4.05;;;1.60;;
45043;SDS011;30784;48.490;9.688;2022-08-03T03:51:21;4.05;;;1.45;;
45043;SDS011;30784;48.490;9.688;2022-08-03T03:53:56;4.97;;;1.80;;
45043;SDS011;30784;48.490;9.688;2022-08-03T03:56:24;8.90;;;2.13;;
45043;SDS011;30784;48.490;9.688;2022-08-03T03:58:50;5.72;;;1.90;;
45043;SDS011;30784;48.490;9.688;2022-08-03T04:01:16;3.30;;;1.00;;
45043;SDS011;30784;48.490;9.688;2022-08-03T04:03:42;4.22;;;1.48;;
45043;SDS011;30784;48.490;9.688;2022-08-03T04:06:07;4.28;;;1.52;;
45043;SDS011;30784;48.490;9.688;2022-08-03T04:08:52;4.05;;;1.60;;
45043;SDS011;30784;48.490;9.688;2022-08-03T04:14:14;3.50;;;1.40;;
45043;SDS011;30784;48.490;9.688;2022-08-03T04:16:49;3.97;;;1.20;;
45043;SDS011;30784;48.490;9.688;2022-08-03T04:19:21;4.07;;;1.45;;
45043;SDS011;30784;48.490;9.688;2022-08-03T04:21:53;3.42;;;1.13;;
45043;SDS011;30784;48.490;9.688;2022-08-03T04:24:23;5.03;;;1.73;;
45043;SDS011;30784;48.490;9.688;2022-08-03T04:26:54;6.03;;;2.10;;
45043;SDS011;30784;48.490;9.688;2022-08-03T04:29:21;3.72;;;1.40;;
45043;SDS011;30784;48.490;9.688;2022-08-03T04:31:49;5.43;;;1.45;;
45043;SDS011;30784;48.490;9.688;2022-08-03T04:34:19;4.47;;;1.52;;
45043;SDS011;30784;48.490;9.688;2022-08-03T04:36:46;4.78;;;1.58;;
45043;SDS011;30784;48.490;9.688;2022-08-03T04:39:15;4.55;;;1.30;;
45043;SDS011;30784;48.490;9.688;2022-08-03T04:41:49;4.28;;;1.50;;
45043;SDS011;30784;48.490;9.688;2022-08-03T04:44:20;4.43;;;1.50;;
45043;SDS011;30784;48.490;9.688;2022-08-03T04:46:47;5.70;;;1.60;;
45043;SDS011;30784;48.490;9.688;2022-08-03T04:49:13;5.20;;;1.70;;
45043;SDS011;30784;48.490;9.688;2022-08-03T04:51:40;6.75;;;1.80;;
45043;SDS011;30784;48.490;9.688;2022-08-03T04:54:10;5.55;;;1.95;;
45043;SDS011;30784;48.490;9.688;2022-08-03T04:59:06;5.00;;;1.65;;
45043;SDS011;30784;48.490;9.688;2022-08-03T05:01:32;4.65;;;1.63;;
45043;SDS011;30784;48.490;9.688;2022-08-03T05:03:58;4.68;;;1.77;;
45043;SDS011;30784;48.490;9.688;2022-08-03T05:06:24;5.05;;;1.67;;
45043;SDS011;30784;48.490;9.688;2022-08-03T05:08:50;4.57;;;1.73;;
45043;SDS011;30784;48.490;9.688;2022-08-03T05:11:16;4.95;;;1.65;;
45043;SDS011;30784;48.490;9.688;2022-08-03T05:13:42;4.75;;;1.70;;
45043;SDS011;30784;48.490;9.688;2022-08-03T05:16:08;4.38;;;1.50;;
45043;SDS011;30784;48.490;9.688;2022-08-03T05:18:34;5.63;;;1.65;;
45043;SDS011;30784;48.490;9.688;2022-08-03T05:21:00;6.15;;;1.77;;
45043;SDS011;30784;48.490;9.688;2022-08-03T05:23:25;3.53;;;1.45;;
45043;SDS011;30784;48.490;9.688;2022-08-03T05:25:51;4.13;;;1.50;;
45043;SDS011;30784;48.490;9.688;2022-08-03T05:28:17;3.90;;;1.35;;
45043;SDS011;30784;48.490;9.688;2022-08-03T05:30:42;3.88;;;1.48;;
45043;SDS011;30784;48.490;9.688;2022-08-03T05:33:08;2.85;;;1.30;;
45043;SDS011;30784;48.490;9.688;2022-08-03T05:35:35;6.32;;;2.30;;
45043;SDS011;30784;48.490;9.688;2022-08-03T05:38:03;5.03;;;2.00;;
45043;SDS011;30784;48.490;9.688;2022-08-03T05:40:29;6.30;;;2.38;;
45043;SDS011;30784;48.490;9.688;2022-08-03T05:42:55;4.15;;;1.60;;
45043;SDS011;30784;48.490;9.688;2022-08-03T05:45:21;6.93;;;1.80;;
45043;SDS011;30784;48.490;9.688;2022-08-03T05:47:47;7.10;;;1.90;;
45043;SDS011;30784;48.490;9.688;2022-08-03T05:50:14;7.35;;;1.85;;
45043;SDS011;30784;48.490;9.688;2022-08-03T05:52:41;4.45;;;1.38;;
45043;SDS011;30784;48.490;9.688;2022-08-03T05:55:07;4.88;;;1.60;;
45043;SDS011;30784;48.490;9.688;2022-08-03T05:57:34;3.30;;;1.30;;
45043;SDS011;30784;48.490;9.688;2022-08-03T06:00:03;5.03;;;1.88;;
45043;SDS011;30784;48.490;9.688;2022-08-03T06:02:33;4.65;;;1.85;;
45043;SDS011;30784;48.490;9.688;2022-08-03T06:05:00;6.18;;;2.97;;
45043;SDS011;30784;48.490;9.688;2022-08-03T06:07:25;4.43;;;1.50;;
45043;SDS011;30784;48.490;9.688;2022-08-03T06:09:51;3.05;;;1.20;;
45043;SDS011;30784;48.490;9.688;2022-08-03T06:12:17;2.30;;;1.02;;
45043;SDS011;30784;48.490;9.688;2022-08-03T06:14:42;3.08;;;1.10;;
45043;SDS011;30784;48.490;9.688;2022-08-03T06:17:08;2.80;;;1.00;;
45043;SDS011;30784;48.490;9.688;2022-08-03T06:19:33;2.15;;;0.82;;
45043;SDS011;30784;48.490;9.688;2022-08-03T06:21:59;2.22;;;0.90;;
45043;SDS011;30784;48.490;9.688;2022-08-03T06:24:25;2.70;;;1.00;;
45043;SDS011;30784;48.490;9.688;2022-08-03T06:26:50;2.20;;;1.00;;
45043;SDS011;30784;48.490;9.688;2022-08-03T06:29:16;2.53;;;0.90;;
45043;SDS011;30784;48.490;9.688;2022-08-03T06:31:41;2.22;;;0.82;;
45043;SDS011;30784;48.490;9.688;2022-08-03T06:34:07;2.78;;;0.90;;
45043;SDS011;30784;48.490;9.688;2022-08-03T06:36:33;1.70;;;0.90;;
45043;SDS011;30784;48.490;9.688;2022-08-03T06:38:58;3.42;;;1.00;;
45043;SDS011;30784;48.490;9.688;2022-08-03T06:41:25;4.43;;;1.10;;
45043;SDS011;30784;48.490;9.688;2022-08-03T06:43:51;2.17;;;0.93;;
45043;SDS011;30784;48.490;9.688;2022-08-03T06:46:17;2.53;;;1.00;;
45043;SDS011;30784;48.490;9.688;2022-08-03T06:48:43;2.00;;;0.88;;
45043;SDS011;30784;48.490;9.688;2022-08-03T06:51:08;3.45;;;0.82;;
45043;SDS011;30784;48.490;9.688;2022-08-03T06:53:34;2.83;;;0.90;;
45043;SDS011;30784;48.490;9.688;2022-08-03T06:56:00;1.40;;;0.60;;
45043;SDS011;30784;48.490;9.688;2022-08-03T06:58:25;1.90;;;0.80;;
45043;SDS011;30784;48.490;9.688;2022-08-03T07:00:51;2.20;;;0.80;;
45043;SDS011;30784;48.490;9.688;2022-08-03T07:03:17;2.65;;;1.00;;
45043;SDS011;30784;48.490;9.688;2022-08-03T07:05:42;2.67;;;0.93;;
45043;SDS011;30784;48.490;9.688;2022-08-03T07:08:10;4.20;;;0.90;;
45043;SDS011;30784;48.490;9.688;2022-08-03T07:10:36;2.08;;;0.90;;
45043;SDS011;30784;48.490;9.688;2022-08-03T07:13:01;2.17;;;0.98;;
45043;SDS011;30784;48.490;9.688;2022-08-03T07:15:27;1.77;;;0.77;;
45043;SDS011;30784;48.490;9.688;2022-08-03T07:17:53;3.08;;;0.88;;
45043;SDS011;30784;48.490;9.688;2022-08-03T07:20:19;1.50;;;0.80;;
45043;SDS011;30784;48.490;9.688;2022-08-03T07:22:44;2.05;;;0.90;;
45043;SDS011;30784;48.490;9.688;2022-08-03T07:25:10;2.15;;;0.80;;
45043;SDS011;30784;48.490;9.688;2022-08-03T07:27:36;1.95;;;0.85;;
45043;SDS011;30784;48.490;9.688;2022-08-03T07:30:04;2.65;;;0.90;;
45043;SDS011;30784;48.490;9.688;2022-08-03T07:32:30;2.25;;;0.90;;
45043;SDS011;30784;48.490;9.688;2022-08-03T07:34:56;3.72;;;0.88;;
45043;SDS011;30784;48.490;9.688;2022-08-03T07:37:22;2.08;;;0.90;;
45043;SDS011;30784;48.490;9.688;2022-08-03T07:39:47;2.53;;;1.00;;
45043;SDS011;30784;48.490;9.688;2022-08-03T07:42:13;3.17;;;0.90;;
45043;SDS011;30784;48.490;9.688;2022-08-03T07:44:39;1.38;;;0.75;;
45043;SDS011;30784;48.490;9.688;2022-08-03T07:47:04;2.08;;;0.80;;
45043;SDS011;30784;48.490;9.688;2022-08-03T07:49:37;2.42;;;0.80;;
45043;SDS011;30784;48.490;9.688;2022-08-03T07:54:47;3.10;;;0.90;;
45043;SDS011;30784;48.490;9.688;2022-08-03T07:57:13;2.78;;;0.82;;
45043;SDS011;30784;48.490;9.688;2022-08-03T07:59:38;2.20;;;0.80;;
45043;SDS011;30784;48.490;9.688;2022-08-03T08:02:05;1.95;;;0.80;;
45043;SDS011;30784;48.490;9.688;2022-08-03T08:04:31;3.42;;;1.00;;
45043;SDS011;30784;48.490;9.688;2022-08-03T08:06:57;2.63;;;1.02;;
45043;SDS011;30784;48.490;9.688;2022-08-03T08:09:23;2.35;;;1.00;;
45043;SDS011;30784;48.490;9.688;2022-08-03T08:11:49;1.95;;;0.80;;
45043;SDS011;30784;48.490;9.688;2022-08-03T08:14:15;2.65;;;0.90;;
45043;SDS011;30784;48.490;9.688;2022-08-03T08:16:40;2.95;;;0.90;;
45043;SDS011;30784;48.490;9.688;2022-08-03T08:19:06;1.88;;;0.80;;
45043;SDS011;30784;48.490;9.688;2022-08-03T08:21:32;1.58;;;0.73;;
45043;SDS011;30784;48.490;9.688;2022-08-03T08:23:57;3.08;;;0.98;;
45043;SDS011;30784;48.490;9.688;2022-08-03T08:26:24;2.25;;;0.85;;
45043;SDS011;30784;48.490;9.688;2022-08-03T08:28:49;1.90;;;0.70;;
45043;SDS011;30784;48.490;9.688;2022-08-03T08:31:16;3.00;;;0.80;;
45043;SDS011;30784;48.490;9.688;2022-08-03T08:33:42;2.78;;;0.90;;
45043;SDS011;30784;48.490;9.688;2022-08-03T08:36:07;2.03;;;0.80;;
45043;SDS011;30784;48.490;9.688;2022-08-03T08:38:33;2.33;;;1.00;;
45043;SDS011;30784;48.490;9.688;2022-08-03T08:40:59;3.03;;;1.00;;
45043;SDS011;30784;48.490;9.688;2022-08-03T08:43:25;2.03;;;0.85;;
45043;SDS011;30784;48.490;9.688;2022-08-03T08:45:51;2.42;;;0.80;;
45043;SDS011;30784;48.490;9.688;2022-08-03T08:48:21;2.25;;;0.80;;
45043;SDS011;30784;48.490;9.688;2022-08-03T08:50:51;2.20;;;0.80;;
45043;SDS011;30784;48.490;9.688;2022-08-03T08:53:18;2.40;;;0.80;;
45043;SDS011;30784;48.490;9.688;2022-08-03T08:55:45;3.83;;;0.90;;
45043;SDS011;30784;48.490;9.688;2022-08-03T08:58:11;2.33;;;0.70;;
45043;SDS011;30784;48.490;9.688;2022-08-03T09:00:38;1.60;;;0.68;;
45043;SDS011;30784;48.490;9.688;2022-08-03T09:03:03;2.53;;;0.70;;
45043;SDS011;30784;48.490;9.688;2022-08-03T09:05:29;2.50;;;0.95;;
45043;SDS011;30784;48.490;9.688;2022-08-03T09:07:57;3.80;;;0.90;;
45043;SDS011;30784;48.490;9.688;2022-08-03T09:10:22;2.65;;;0.93;;
45043;SDS011;30784;48.490;9.688;2022-08-03T09:12:49;3.08;;;0.90;;
45043;SDS011;30784;48.490;9.688;2022-08-03T09:17:49;2.38;;;0.90;;
45043;SDS011;30784;48.490;9.688;2022-08-03T09:20:16;1.58;;;0.88;;
45043;SDS011;30784;48.490;9.688;2022-08-03T09:22:59;2.42;;;1.05;;
45043;SDS011;30784;48.490;9.688;2022-08-03T09:25:30;4.25;;;0.90;;
45043;SDS011;30784;48.490;9.688;2022-08-03T09:28:18;1.77;;;0.82;;
45043;SDS011;30784;48.490;9.688;2022-08-03T09:30:44;2.28;;;0.82;;
45043;SDS011;30784;48.490;9.688;2022-08-03T09:33:23;3.45;;;0.90;;
45043;SDS011;30784;48.490;9.688;2022-08-03T09:35:49;1.65;;;0.75;;
45043;SDS011;30784;48.490;9.688;2022-08-03T09:38:16;2.70;;;0.98;;
45043;SDS011;30784;48.490;9.688;2022-08-03T09:40:51;4.07;;;1.13;;
45043;SDS011;30784;48.490;9.688;2022-08-03T09:43:18;2.05;;;0.88;;
45043;SDS011;30784;48.490;9.688;2022-08-03T09:45:44;3.45;;;1.00;;
45043;SDS011;30784;48.490;9.688;2022-08-03T09:48:26;3.13;;;1.02;;
45043;SDS011;30784;48.490;9.688;2022-08-03T09:50:59;2.78;;;0.90;;
45043;SDS011;30784;48.490;9.688;2022-08-03T09:53:27;1.92;;;0.90;;
45043;SDS011;30784;48.490;9.688;2022-08-03T09:56:00;2.53;;;0.90;;
45043;SDS011;30784;48.490;9.688;2022-08-03T09:58:27;2.45;;;1.08;;
45043;SDS011;30784;48.490;9.688;2022-08-03T10:03:26;3.25;;;1.00;;
45043;SDS011;30784;48.490;9.688;2022-08-03T10:05:53;2.50;;;0.90;;
45043;SDS011;30784;48.490;9.688;2022-08-03T10:08:19;1.77;;;0.82;;
45043;SDS011;30784;48.490;9.688;2022-08-03T10:10:47;1.42;;;0.80;;
45043;SDS011;30784;48.490;9.688;2022-08-03T10:13:15;1.42;;;0.73;;
45043;SDS011;30784;48.490;9.688;2022-08-03T10:15:42;2.15;;;0.80;;
45043;SDS011;30784;48.490;9.688;2022-08-03T10:18:08;2.42;;;1.08;;
45043;SDS011;30784;48.490;9.688;2022-08-03T10:21:08;1.90;;;0.90;;
45043;SDS011;30784;48.490;9.688;2022-08-03T10:23:34;2.92;;;1.00;;
45043;SDS011;30784;48.490;9.688;2022-08-03T10:26:03;1.10;;;0.70;;
45043;SDS011;30784;48.490;9.688;2022-08-03T10:28:34;2.67;;;0.90;;
45043;SDS011;30784;48.490;9.688;2022-08-03T10:31:06;2.15;;;0.88;;
45043;SDS011;30784;48.490;9.688;2022-08-03T10:33:36;2.22;;;0.90;;
45043;SDS011;30784;48.490;9.688;2022-08-03T10:36:05;1.70;;;0.70;;
45043;SDS011;30784;48.490;9.688;2022-08-03T10:38:32;2.50;;;0.90;;
45043;SDS011;30784;48.490;9.688;2022-08-03T10:41:02;2.33;;;0.90;;
45043;SDS011;30784;48.490;9.688;2022-08-03T10:44:04;3.72;;;0.90;;
45043;SDS011;30784;48.490;9.688;2022-08-03T10:46:37;3.03;;;1.00;;
45043;SDS011;30784;48.490;9.688;2022-08-03T10:49:04;4.07;;;0.95;;
45043;SDS011;30784;48.490;9.688;2022-08-03T10:51:31;2.17;;;0.90;;
45043;SDS011;30784;48.490;9.688;2022-08-03T10:53:58;1.55;;;0.75;;
45043;SDS011;30784;48.490;9.688;2022-08-03T10:59:55;3.55;;;0.98;;
45043;SDS011;30784;48.490;9.688;2022-08-03T11:02:15;1.70;;;0.80;;
45043;SDS011;30784;48.490;9.688;2022-08-03T11:04:42;2.85;;;1.13;;
45043;SDS011;30784;48.490;9.688;2022-08-03T11:09:49;3.63;;;1.20;;
45043;SDS011;30784;48.490;9.688;2022-08-03T11:14:56;3.92;;;1.30;;
45043;SDS011;30784;48.490;9.688;2022-08-03T11:17:26;2.50;;;1.00;;
45043;SDS011;30784;48.490;9.688;2022-08-03T11:19:52;2.63;;;0.98;;
45043;SDS011;30784;48.490;9.688;2022-08-03T11:22:19;2.78;;;0.95;;
45043;SDS011;30784;48.490;9.688;2022-08-03T11:27:21;2.88;;;0.93;;
45043;SDS011;30784;48.490;9.688;2022-08-03T11:29:55;2.33;;;0.90;;
45043;SDS011;30784;48.490;9.688;2022-08-03T11:40:35;2.42;;;1.08;;
45043;SDS011;30784;48.490;9.688;2022-08-03T11:46:01;2.92;;;1.00;;
45043;SDS011;30784;48.490;9.688;2022-08-03T11:48:33;2.92;;;0.90;;
45043;SDS011;30784;48.490;9.688;2022-08-03T11:51:00;2.03;;;0.98;;
45043;SDS011;30784;48.490;9.688;2022-08-03T11:53:27;3.40;;;1.02;;
45043;SDS011;30784;48.490;9.688;2022-08-03T11:55:57;2.25;;;1.00;;
45043;SDS011;30784;48.490;9.688;2022-08-03T11:58:23;2.50;;;0.80;;
45043;SDS011;30784;48.490;9.688;2022-08-03T12:00:49;3.75;;;1.17;;
45043;SDS011;30784;48.490;9.688;2022-08-03T12:03:17;1.75;;;0.90;;
45043;SDS011;30784;48.490;9.688;2022-08-03T12:05:53;2.20;;;0.98;;
45043;SDS011;30784;48.490;9.688;2022-08-03T12:10:56;2.47;;;1.00;;
45043;SDS011;30784;48.490;9.688;2022-08-03T12:13:23;4.47;;;1.10;;
45043;SDS011;30784;48.490;9.688;2022-08-03T12:15:53;3.03;;;1.20;;
45043;SDS011;30784;48.490;9.688;2022-08-03T12:18:23;1.83;;;0.95;;
45043;SDS011;30784;48.490;9.688;2022-08-03T12:20:50;1.45;;;0.82;;
45043;SDS011;30784;48.490;9.688;2022-08-03T12:23:17;1.58;;;0.90;;
45043;SDS011;30784;48.490;9.688;2022-08-03T12:25:44;2.40;;;1.00;;
45043;SDS011;30784;48.490;9.688;2022-08-03T12:28:18;2.90;;;1.10;;
45043;SDS011;30784;48.490;9.688;2022-08-03T12:30:48;1.80;;;0.95;;
45043;SDS011;30784;48.490;9.688;2022-08-03T12:35:41;3.22;;;1.00;;
45043;SDS011;30784;48.490;9.688;2022-08-03T12:38:07;3.83;;;1.30;;
45043;SDS011;30784;48.490;9.688;2022-08-03T12:40:34;3.67;;;1.23;;
45043;SDS011;30784;48.490;9.688;2022-08-03T12:42:59;3.03;;;1.13;;
45043;SDS011;30784;48.490;9.688;2022-08-03T12:45:26;3.05;;;1.30;;
45043;SDS011;30784;48.490;9.688;2022-08-03T12:47:57;5.15;;;1.45;;
45043;SDS011;30784;48.490;9.688;2022-08-03T12:50:24;2.75;;;1.10;;
45043;SDS011;30784;48.490;9.688;2022-08-03T12:53:01;3.08;;;1.00;;
45043;SDS011;30784;48.490;9.688;2022-08-03T12:55:29;4.43;;;1.00;;
45043;SDS011;30784;48.490;9.688;2022-08-03T12:58:02;3.25;;;1.00;;
45043;SDS011;30784;48.490;9.688;2022-08-03T13:00:29;4.45;;;1.20;;
45043;SDS011;30784;48.490;9.688;2022-08-03T13:03:07;5.70;;;1.20;;
45043;SDS011;30784;48.490;9.688;2022-08-03T13:05:42;3.05;;;1.15;;
45043;SDS011;30784;48.490;9.688;2022-08-03T13:08:22;3.53;;;1.20;;
45043;SDS011;30784;48.490;9.688;2022-08-03T13:10:48;3.45;;;1.38;;
45043;SDS011;30784;48.490;9.688;2022-08-03T13:13:15;3.90;;;1.40;;
45043;SDS011;30784;48.490;9.688;2022-08-03T13:15:41;3.45;;;1.13;;
45043;SDS011;30784;48.490;9.688;2022-08-03T13:18:07;2.28;;;1.00;;
45043;SDS011;30784;48.490;9.688;2022-08-03T13:20:33;2.28;;;0.90;;
45043;SDS011;30784;48.490;9.688;2022-08-03T13:22:59;3.05;;;1.20;;
45043;SDS011;30784;48.490;9.688;2022-08-03T13:25:25;1.85;;;0.90;;
45043;SDS011;30784;48.490;9.688;2022-08-03T13:27:51;2.78;;;1.10;;
45043;SDS011;30784;48.490;9.688;2022-08-03T13:30:17;3.28;;;1.10;;
45043;SDS011;30784;48.490;9.688;2022-08-03T13:32:42;2.80;;;1.08;;
45043;SDS011;30784;48.490;9.688;2022-08-03T13:35:09;3.58;;;1.10;;
45043;SDS011;30784;48.490;9.688;2022-08-03T13:37:35;5.95;;;1.40;;
45043;SDS011;30784;48.490;9.688;2022-08-03T13:40:02;3.55;;;1.30;;
45043;SDS011;30784;48.490;9.688;2022-08-03T13:42:29;4.82;;;1.15;;
45043;SDS011;30784;48.490;9.688;2022-08-03T13:44:56;2.42;;;1.10;;
45043;SDS011;30784;48.490;9.688;2022-08-03T13:47:23;2.67;;;1.20;;
45043;SDS011;30784;48.490;9.688;2022-08-03T13:49:48;3.83;;;1.20;;
45043;SDS011;30784;48.490;9.688;2022-08-03T13:52:16;3.67;;;1.20;;
45043;SDS011;30784;48.490;9.688;2022-08-03T13:54:42;4.07;;;1.17;;
45043;SDS011;30784;48.490;9.688;2022-08-03T13:57:07;2.67;;;1.20;;
45043;SDS011;30784;48.490;9.688;2022-08-03T13:59:35;2.72;;;1.00;;
45043;SDS011;30784;48.490;9.688;2022-08-03T14:02:00;2.55;;;1.05;;
45043;SDS011;30784;48.490;9.688;2022-08-03T14:04:26;3.10;;;0.93;;
45043;SDS011;30784;48.490;9.688;2022-08-03T14:06:51;4.13;;;1.27;;
45043;SDS011;30784;48.490;9.688;2022-08-03T14:09:17;3.30;;;1.20;;
45043;SDS011;30784;48.490;9.688;2022-08-03T14:11:43;3.20;;;1.13;;
45043;SDS011;30784;48.490;9.688;2022-08-03T14:14:09;3.40;;;1.17;;
45043;SDS011;30784;48.490;9.688;2022-08-03T14:16:35;3.92;;;1.30;;
45043;SDS011;30784;48.490;9.688;2022-08-03T14:19:01;2.80;;;1.10;;
45043;SDS011;30784;48.490;9.688;2022-08-03T14:21:27;2.42;;;1.00;;
45043;SDS011;30784;48.490;9.688;2022-08-03T14:23:52;2.25;;;1.00;;
45043;SDS011;30784;48.490;9.688;2022-08-03T14:26:18;2.90;;;1.10;;
45043;SDS011;30784;48.490;9.688;2022-08-03T14:28:44;2.25;;;1.00;;
45043;SDS011;30784;48.490;9.688;2022-08-03T14:31:10;2.03;;;1.00;;
45043;SDS011;30784;48.490;9.688;2022-08-03T14:33:36;2.50;;;1.05;;
45043;SDS011;30784;48.490;9.688;2022-08-03T14:36:03;3.40;;;1.20;;
45043;SDS011;30784;48.490;9.688;2022-08-03T14:38:29;4.22;;;1.10;;
45043;SDS011;30784;48.490;9.688;2022-08-03T14:40:54;1.90;;;0.90;;
45043;SDS011;30784;48.490;9.688;2022-08-03T14:43:20;2.72;;;1.00;;
45043;SDS011;30784;48.490;9.688;2022-08-03T14:45:46;3.97;;;1.10;;
45043;SDS011;30784;48.490;9.688;2022-08-03T14:48:16;2.75;;;1.10;;
45043;SDS011;30784;48.490;9.688;2022-08-03T14:50:42;1.83;;;0.90;;
45043;SDS011;30784;48.490;9.688;2022-08-03T14:53:07;2.63;;;1.05;;
45043;SDS011;30784;48.490;9.688;2022-08-03T14:55:33;2.70;;;1.20;;
45043;SDS011;30784;48.490;9.688;2022-08-03T14:57:59;2.85;;;1.10;;
45043;SDS011;30784;48.490;9.688;2022-08-03T15:00:29;3.28;;;1.00;;
45043;SDS011;30784;48.490;9.688;2022-08-03T15:02:59;3.30;;;1.00;;
45043;SDS011;30784;48.490;9.688;2022-08-03T15:05:25;2.40;;;1.00;;
45043;SDS011;30784;48.490;9.688;2022-08-03T15:07:51;1.98;;;1.00;;
45043;SDS011;30784;48.490;9.688;2022-08-03T15:10:16;3.65;;;1.00;;
45043;SDS011;30784;48.490;9.688;2022-08-03T15:12:42;3.72;;;1.00;;
45043;SDS011;30784;48.490;9.688;2022-08-03T15:15:08;3.40;;;1.05;;
45043;SDS011;30784;48.490;9.688;2022-08-03T15:17:34;2.03;;;1.00;;
45043;SDS011;30784;48.490;9.688;2022-08-03T15:19:59;3.25;;;1.00;;
45043;SDS011;30784;48.490;9.688;2022-08-03T15:22:25;2.78;;;1.10;;
45043;SDS011;30784;48.490;9.688;2022-08-03T15:24:51;2.00;;;0.93;;
45043;SDS011;30784;48.490;9.688;2022-08-03T15:27:16;2.92;;;1.20;;
45043;SDS011;30784;48.490;9.688;2022-08-03T15:29:42;2.53;;;1.08;;
45043;SDS011;30784;48.490;9.688;2022-08-03T15:32:07;2.30;;;0.98;;
45043;SDS011;30784;48.490;9.688;2022-08-03T15:34:33;2.42;;;1.00;;
45043;SDS011;30784;48.490;9.688;2022-08-03T15:36:59;2.90;;;1.10;;
45043;SDS011;30784;48.490;9.688;2022-08-03T15:39:24;4.60;;;1.23;;
45043;SDS011;30784;48.490;9.688;2022-08-03T15:41:51;5.25;;;1.20;;
45043;SDS011;30784;48.490;9.688;2022-08-03T15:44:17;2.65;;;1.00;;
45043;SDS011;30784;48.490;9.688;2022-08-03T15:46:43;4.50;;;1.23;;